Section, Alabama
Current Conditions -  °F | °C
As of 2:15 PM on Wednesday 26 Nov 2014 (Local Time) from K4A6 Reporting Station
Scattered Clouds Scattered Clouds  
Wind Chill: 54°   Ceiling: Unl
Heat Index: 54°   Visibility: 10mi
Dew Point: 25°   Wind: 8mph
Humidity: 33%   Direction: 220°SW
Pressure: 30.07"   Gusts: NA
Location:  34.58°N, 85.99°W
Report Text: K4A6 262015Z AUTO 22007KT 10SM SCT120 12/M04 A3007 RMK AO2
Loading
Personal Weather Stations






























Interactive Weather Map New forecast layout! Learn more

10-Day Weather Forecast

Advertisements
Track Severe Weather on mobile